createdAt,value
2018-07-27T00:04:35.784Z,95582.00
2018-07-27T00:10:05.501Z,95578.00
2018-07-27T00:15:34.760Z,95573.00
2018-07-27T00:21:04.717Z,95582.00
2018-07-27T00:26:34.044Z,95569.00
2018-07-27T00:32:03.330Z,95567.00
2018-07-27T00:37:32.670Z,95563.00
2018-07-27T00:43:01.899Z,95548.00
2018-07-27T00:48:31.234Z,95547.00
2018-07-27T00:54:00.484Z,95548.00
2018-07-27T00:59:30.590Z,95538.00
2018-07-27T01:04:59.558Z,95548.00
2018-07-27T01:10:28.841Z,95544.00
2018-07-27T01:15:58.115Z,95548.00
2018-07-27T01:21:27.429Z,95557.00
2018-07-27T01:26:56.656Z,95563.00
2018-07-27T01:32:25.911Z,95562.00
2018-07-27T01:37:55.102Z,95560.00
2018-07-27T01:43:24.469Z,95565.00
2018-07-27T01:48:53.709Z,95560.00
2018-07-27T01:54:23.011Z,95559.00
2018-07-27T01:59:52.511Z,95556.00
2018-07-27T02:05:21.870Z,95550.00
2018-07-27T02:10:51.175Z,95538.00
2018-07-27T02:16:20.584Z,95542.00
2018-07-27T02:21:49.940Z,95547.00
2018-07-27T02:27:19.346Z,95551.00
2018-07-27T02:32:48.685Z,95563.00
2018-07-27T02:38:18.019Z,95565.00
2018-07-27T02:43:47.214Z,95549.00
2018-07-27T02:49:17.215Z,95551.00
2018-07-27T02:54:46.421Z,95554.00
2018-07-27T03:00:15.755Z,95547.00
2018-07-27T03:05:45.121Z,95536.00
2018-07-27T03:11:14.534Z,95545.00
2018-07-27T03:16:43.827Z,95547.00
2018-07-27T03:22:13.160Z,95538.00
2018-07-27T03:27:42.404Z,95531.00
2018-07-27T03:33:12.883Z,95528.00
2018-07-27T03:38:42.382Z,95526.00
2018-07-27T03:44:11.596Z,95513.00
2018-07-27T03:49:40.901Z,95515.00
2018-07-27T03:55:10.135Z,95521.00
2018-07-27T04:00:39.323Z,95522.00
2018-07-27T04:06:08.645Z,95513.00
2018-07-27T04:11:38.053Z,95528.00
2018-07-27T04:17:07.006Z,95515.00
2018-07-27T04:22:36.199Z,95513.00
2018-07-27T04:28:05.637Z,95508.00
2018-07-27T04:33:34.963Z,95503.00
2018-07-27T04:39:06.345Z,95510.00
2018-07-27T04:44:35.736Z,95503.00
2018-07-27T04:50:05.297Z,95519.00
2018-07-27T04:55:34.512Z,95512.00
2018-07-27T05:01:03.755Z,95505.00
2018-07-27T05:06:32.967Z,95505.00
2018-07-27T05:12:02.267Z,95509.00
2018-07-27T05:17:31.541Z,95516.00
2018-07-27T05:23:00.760Z,95524.00
2018-07-27T05:28:29.973Z,95527.00
2018-07-27T05:33:59.249Z,95524.00
2018-07-27T05:39:28.511Z,95528.00
2018-07-27T05:44:57.803Z,95540.00
2018-07-27T05:50:27.083Z,95550.00
2018-07-27T05:55:56.392Z,95548.00
2018-07-27T06:01:25.669Z,95545.00
2018-07-27T06:06:55.010Z,95552.00
2018-07-27T06:12:24.357Z,95554.00
2018-07-27T06:17:53.730Z,95559.00
2018-07-27T06:23:23.015Z,95563.00
2018-07-27T06:28:52.462Z,95568.00
2018-07-27T06:34:21.459Z,95560.00
2018-07-27T06:39:50.752Z,95561.00
2018-07-27T06:45:19.732Z,95564.00
2018-07-27T06:50:51.527Z,95570.00
2018-07-27T06:56:20.844Z,95567.00
2018-07-27T07:01:50.385Z,95573.00
2018-07-27T07:07:19.708Z,95570.00
2018-07-27T07:12:49.319Z,95560.00
2018-07-27T07:18:18.600Z,95569.00
2018-07-27T07:23:47.907Z,95559.00
2018-07-27T07:29:17.137Z,95564.00
2018-07-27T07:34:46.420Z,95569.00
2018-07-27T07:40:15.745Z,95570.00
2018-07-27T07:45:44.980Z,95566.00
2018-07-27T07:51:14.206Z,95556.00
2018-07-27T07:56:43.588Z,95547.00
2018-07-27T08:02:12.824Z,95542.00
2018-07-27T08:07:42.061Z,95534.00
2018-07-27T08:13:11.378Z,95539.00
2018-07-27T08:18:40.908Z,95534.00
2018-07-27T08:24:10.122Z,95536.00
2018-07-27T08:29:41.490Z,95528.00
2018-07-27T08:35:10.803Z,95528.00
2018-07-27T08:40:40.198Z,95530.00
2018-07-27T08:46:09.496Z,95532.00
2018-07-27T08:51:38.849Z,95522.00
2018-07-27T08:57:08.092Z,95533.00
2018-07-27T09:02:37.330Z,95526.00
2018-07-27T09:08:07.251Z,95521.00
2018-07-27T09:13:36.536Z,95527.00
2018-07-27T09:19:05.901Z,95524.00
2018-07-27T09:24:35.140Z,95526.00
2018-07-27T09:30:07.294Z,95521.00
2018-07-27T09:35:37.744Z,95518.00
2018-07-27T09:41:07.167Z,95513.00
2018-07-27T09:46:36.849Z,95516.00
2018-07-27T09:52:06.355Z,95509.00
2018-07-27T09:57:35.726Z,95501.00
2018-07-27T10:03:05.120Z,95502.00
2018-07-27T10:08:34.423Z,95497.00
2018-07-27T10:14:03.742Z,95501.00
2018-07-27T10:19:32.970Z,95499.00
2018-07-27T10:25:02.323Z,95494.00
2018-07-27T10:30:31.592Z,95497.00
2018-07-27T10:36:00.876Z,95491.00
2018-07-27T10:41:30.073Z,95484.00
2018-07-27T10:46:59.290Z,95485.00
2018-07-27T10:52:28.540Z,95479.00
2018-07-27T10:57:57.730Z,95473.00
2018-07-27T11:03:26.955Z,95475.00
2018-07-27T11:08:56.214Z,95467.00
2018-07-27T11:14:25.864Z,95447.00
2018-07-27T11:19:56.145Z,95453.00
2018-07-27T11:25:25.819Z,95445.00
2018-07-27T11:30:57.322Z,95442.00
2018-07-27T11:36:27.184Z,95438.00
2018-07-27T11:41:56.704Z,95432.00
2018-07-27T11:47:25.977Z,95439.00
2018-07-27T11:52:55.215Z,95426.00
2018-07-27T11:58:24.781Z,95426.00
2018-07-27T12:03:54.140Z,95419.00
2018-07-27T12:09:23.422Z,95420.00
2018-07-27T12:14:52.808Z,95418.00
2018-07-27T12:20:22.091Z,95410.00
2018-07-27T12:25:51.620Z,95405.00
2018-07-27T12:31:20.828Z,95402.00
2018-07-27T12:36:50.283Z,95397.00
2018-07-27T12:42:19.587Z,95395.00
2018-07-27T12:47:48.913Z,95395.00
2018-07-27T12:53:18.474Z,95394.00
2018-07-27T12:58:47.696Z,95390.00
2018-07-27T13:04:16.808Z,95381.00
2018-07-27T13:09:46.041Z,95365.00
2018-07-27T13:15:15.279Z,95362.00
2018-07-27T13:20:51.847Z,95364.00
2018-07-27T13:31:52.701Z,95349.00
2018-07-27T13:37:23.335Z,95345.00
2018-07-27T13:42:52.829Z,95333.00
2018-07-27T13:48:22.195Z,95323.00
2018-07-27T13:53:51.496Z,95315.00
2018-07-27T13:59:21.134Z,95325.00
2018-07-27T14:04:50.798Z,95311.00
2018-07-27T14:10:20.076Z,95308.00
2018-07-27T14:15:49.164Z,95311.00
2018-07-27T14:21:18.611Z,95302.00
2018-07-27T14:26:47.993Z,95300.00
2018-07-27T14:32:17.355Z,95306.00
2018-07-27T14:37:46.689Z,95299.00
2018-07-27T14:43:15.955Z,95293.00
2018-07-27T14:48:45.289Z,95289.00
2018-07-27T14:54:15.335Z,95283.00
2018-07-27T14:59:44.585Z,95289.00
2018-07-27T15:05:13.865Z,95292.00
2018-07-27T15:10:43.128Z,95290.00
2018-07-27T15:16:12.384Z,95288.00
2018-07-27T15:21:41.584Z,95285.00
2018-07-27T15:27:10.864Z,95274.00
2018-07-27T15:32:40.149Z,95273.00
2018-07-27T15:38:10.495Z,95267.00
2018-07-27T15:43:39.944Z,95281.00
2018-07-27T15:49:12.764Z,95274.00
2018-07-27T15:54:42.009Z,95278.00
2018-07-27T16:00:11.283Z,95274.00
2018-07-27T16:05:40.479Z,95276.00
2018-07-27T16:11:09.718Z,95269.00
2018-07-27T16:16:39.030Z,95262.00
2018-07-27T16:22:08.290Z,95263.00
2018-07-27T16:27:37.514Z,95259.00
2018-07-27T16:33:06.717Z,95257.00
2018-07-27T16:38:37.122Z,95254.00
2018-07-27T16:44:06.551Z,95256.00
2018-07-27T16:49:35.879Z,95260.00
2018-07-27T16:55:05.115Z,95260.00
2018-07-27T17:00:34.063Z,95258.00
2018-07-27T17:06:03.262Z,95254.00
2018-07-27T17:11:32.473Z,95257.00
2018-07-27T17:17:01.726Z,95260.00
2018-07-27T17:22:30.881Z,95264.00
2018-07-27T17:28:00.115Z,95276.00
2018-07-27T17:33:29.307Z,95267.00
2018-07-27T17:38:58.259Z,95275.00
2018-07-27T17:44:27.550Z,95270.00
2018-07-27T17:49:56.904Z,95282.00
2018-07-27T17:55:26.337Z,95279.00
2018-07-27T18:00:55.597Z,95273.00
2018-07-27T18:06:24.926Z,95282.00
2018-07-27T18:11:54.177Z,95281.00
2018-07-27T18:17:23.450Z,95285.00
2018-07-27T18:22:52.734Z,95292.00
2018-07-27T18:28:22.049Z,95283.00
2018-07-27T18:33:51.372Z,95293.00
2018-07-27T18:39:20.665Z,95292.00
2018-07-27T18:44:49.997Z,95293.00
2018-07-27T18:50:19.347Z,95298.00
2018-07-27T18:55:48.621Z,95291.00
2018-07-27T19:01:17.923Z,95299.00
2018-07-27T19:06:47.310Z,95301.00
2018-07-27T19:12:16.608Z,95300.00
2018-07-27T19:17:45.827Z,95297.00
2018-07-27T19:23:14.805Z,95301.00
2018-07-27T19:28:43.969Z,95302.00
2018-07-27T19:34:13.657Z,95305.00
2018-07-27T19:39:42.962Z,95308.00
2018-07-27T19:45:11.983Z,95308.00
2018-07-27T19:50:41.273Z,95305.00
2018-07-27T19:56:10.542Z,95314.00
2018-07-27T20:01:39.814Z,95310.00
2018-07-27T20:07:09.058Z,95301.00
2018-07-27T20:12:39.484Z,95306.00
2018-07-27T20:18:08.812Z,95302.00
2018-07-27T20:23:38.105Z,95293.00
2018-07-27T20:29:07.317Z,95294.00
2018-07-27T20:34:36.545Z,95292.00
2018-07-27T20:40:06.491Z,95295.00
2018-07-27T20:45:35.731Z,95293.00
2018-07-27T20:51:05.016Z,95291.00
2018-07-27T20:56:34.233Z,95284.00
2018-07-27T21:02:03.451Z,95285.00
2018-07-27T21:07:32.980Z,95290.00
2018-07-27T21:13:02.214Z,95283.00
2018-07-27T21:18:31.479Z,95284.00
2018-07-27T21:24:00.719Z,95285.00
2018-07-27T21:29:31.024Z,95271.00
2018-07-27T21:35:00.425Z,95272.00
2018-07-27T21:40:29.711Z,95265.00
2018-07-27T21:45:59.057Z,95266.00
2018-07-27T21:51:28.599Z,95266.00
2018-07-27T21:56:57.917Z,95252.00
2018-07-27T22:02:28.247Z,95262.00
2018-07-27T22:07:57.570Z,95267.00
2018-07-27T22:13:26.933Z,95256.00
2018-07-27T22:18:56.197Z,95258.00
2018-07-27T22:24:25.591Z,95254.00
2018-07-27T22:29:54.907Z,95252.00
2018-07-27T22:35:24.208Z,95251.00
2018-07-27T22:40:53.482Z,95253.00
2018-07-27T22:46:22.791Z,95250.00
2018-07-27T22:51:52.102Z,95248.00
2018-07-27T22:57:21.744Z,95247.00
2018-07-27T23:02:50.974Z,95246.00
2018-07-27T23:08:20.262Z,95243.00
2018-07-27T23:13:49.557Z,95249.00
2018-07-27T23:19:20.054Z,95250.00
2018-07-27T23:24:49.372Z,95246.00
2018-07-27T23:30:18.748Z,95238.00
2018-07-27T23:35:48.009Z,95237.00
2018-07-27T23:41:17.353Z,95233.00
2018-07-27T23:46:47.752Z,95232.00
2018-07-27T23:52:17.016Z,95225.00
2018-07-27T23:57:46.361Z,95223.00
